Time;durP1;ratioP1;P1;durP2;ratioP2;P2;SDS_P1;SDS_P2;PMS_P1;PMS_P2;Temp;Humidity;BMP_temperature;BMP_pressure;BME280_temperature;BME280_humidity;BME280_pressure;Samples;Min_cycle;Max_cycle;Signal;HPM_P1;HPM_P2
2022/01/10 00:02:09;;;;;;;17.20;2.90;;;2.90;99.90;;;;;;5044851;28;20151;-80
2022/01/10 00:04:34;;;;;;;15.48;2.60;;;2.90;99.90;;;;;;5075704;28;20910;-80
2022/01/10 00:07:00;;;;;;;7.18;2.30;;;2.90;99.90;;;;;;5045031;28;20044;-79
2022/01/10 00:09:26;;;;;;;10.38;2.80;;;2.90;99.90;;;;;;5042961;28;20050;-80
2022/01/10 00:11:52;;;;;;;14.73;3.25;;;3.60;99.90;;;;;;5061106;28;20040;-80
2022/01/10 00:14:17;;;;;;;13.95;2.50;;;2.90;99.90;;;;;;5057953;28;20130;-80
2022/01/10 00:16:43;;;;;;;10.95;2.85;;;2.90;99.90;;;;;;5035675;28;20051;-80
2022/01/10 00:19:09;;;;;;;12.63;2.50;;;3.80;99.90;;;;;;5043546;28;20040;-80
2022/01/10 00:21:34;;;;;;;9.80;2.60;;;2.90;99.90;;;;;;5028678;28;20056;-80
2022/01/10 00:24:00;;;;;;;14.13;3.03;;;2.80;99.90;;;;;;5074262;28;20134;-80
2022/01/10 00:26:26;;;;;;;11.48;2.78;;;4.40;99.90;;;;;;5036038;28;20044;-80
2022/01/10 00:28:52;;;;;;;15.85;2.83;;;3.70;99.90;;;;;;5075081;28;20052;-80
2022/01/10 00:31:18;;;;;;;11.75;2.28;;;2.70;99.90;;;;;;5060759;28;20055;-79
2022/01/10 00:33:44;;;;;;;13.75;2.63;;;2.70;99.90;;;;;;5074519;28;20056;-80
2022/01/10 00:36:10;;;;;;;9.15;2.50;;;3.50;99.90;;;;;;5077031;28;20520;-80
2022/01/10 00:38:35;;;;;;;13.30;2.70;;;3.20;99.90;;;;;;5046860;28;20410;-80
2022/01/10 00:41:02;;;;;;;8.07;2.50;;;3.00;99.90;;;;;;5057706;28;20070;-80
2022/01/10 00:43:34;;;;;;;11.00;2.75;;;3.20;99.90;;;;;;5076505;28;20059;-80
2022/01/10 00:46:01;;;;;;;14.45;2.53;;;2.70;99.90;;;;;;5056571;28;20055;-79
2022/01/10 00:48:27;;;;;;;9.77;2.47;;;3.20;99.90;;;;;;5062390;28;20123;-79
2022/01/10 00:50:53;;;;;;;11.98;2.88;;;4.10;99.90;;;;;;5048798;28;20044;-80
2022/01/10 00:53:19;;;;;;;8.20;2.80;;;3.30;99.90;;;;;;5074611;28;20752;-79
2022/01/10 00:55:44;;;;;;;9.60;2.30;;;2.40;99.90;;;;;;5042438;28;20556;-80
2022/01/10 00:58:10;;;;;;;7.72;2.40;;;2.40;99.90;;;;;;5059118;28;20044;-79
2022/01/10 01:00:36;;;;;;;9.15;2.63;;;2.40;99.90;;;;;;5024114;28;20036;-80
2022/01/10 01:03:02;;;;;;;8.95;2.42;;;2.60;99.90;;;;;;5059728;28;20047;-80
2022/01/10 01:05:30;;;;;;;9.25;2.15;;;2.80;99.90;;;;;;5077241;28;20266;-80
2022/01/10 01:07:58;;;;;;;14.40;3.80;;;3.30;99.90;;;;;;5075030;28;20044;-81
2022/01/10 01:13:07;;;;;;;10.77;2.25;;;2.10;99.90;;;;;;5042142;28;20493;-80
2022/01/10 01:15:45;;;;;;;11.55;2.10;;;2.20;99.90;;;;;;5043422;28;20123;-80
2022/01/10 01:26:02;;;;;;;11.80;2.58;;;3.40;99.90;;;;;;5074394;28;20532;-80
2022/01/10 01:28:28;;;;;;;10.23;3.00;;;2.00;99.90;;;;;;5042541;28;20094;-79
2022/01/10 01:30:54;;;;;;;15.77;3.20;;;2.90;99.90;;;;;;5073863;28;20036;-79
2022/01/10 01:33:21;;;;;;;9.38;2.80;;;2.00;99.90;;;;;;5042305;28;20044;-80
2022/01/10 01:35:47;;;;;;;10.45;3.08;;;2.90;99.90;;;;;;5076445;28;20453;-79
2022/01/10 01:38:14;;;;;;;9.55;2.50;;;3.00;99.90;;;;;;5059158;28;20051;-79
2022/01/10 01:40:46;;;;;;;9.10;3.08;;;2.00;99.90;;;;;;5075473;28;20052;-79
2022/01/10 01:43:12;;;;;;;7.70;3.30;;;3.40;99.90;;;;;;5075772;28;20044;-79
2022/01/10 01:45:40;;;;;;;13.30;3.05;;;1.90;99.90;;;;;;5059245;28;20123;-79
2022/01/10 01:48:07;;;;;;;9.52;3.15;;;1.80;99.90;;;;;;5057457;28;20378;-79
2022/01/10 01:50:33;;;;;;;10.38;3.55;;;3.40;99.90;;;;;;5074108;28;20040;-80
2022/01/10 01:52:58;;;;;;;9.48;2.92;;;1.80;99.90;;;;;;5074485;28;20047;-80
2022/01/10 01:55:24;;;;;;;8.82;3.13;;;1.70;99.90;;;;;;5059019;28;20079;-80
2022/01/10 01:57:50;;;;;;;7.95;3.03;;;1.70;99.90;;;;;;5074589;28;20048;-80
2022/01/10 02:00:19;;;;;;;7.57;3.00;;;1.70;99.90;;;;;;5058632;28;20097;-79
2022/01/10 02:02:46;;;;;;;9.48;3.63;;;1.70;99.90;;;;;;5074451;28;20044;-80
2022/01/10 02:05:12;;;;;;;7.75;3.20;;;1.70;99.90;;;;;;5079279;28;20040;-79
2022/01/10 02:07:38;;;;;;;12.45;4.03;;;1.60;99.90;;;;;;5046876;28;20055;-79
2022/01/10 02:10:05;;;;;;;12.02;3.92;;;3.20;99.90;;;;;;5062418;28;20128;-79
2022/01/10 02:12:31;;;;;;;11.98;3.58;;;1.60;99.90;;;;;;5036827;28;20048;-79
2022/01/10 02:14:57;;;;;;;11.25;4.03;;;1.60;99.90;;;;;;5078000;28;20040;-80
2022/01/10 02:17:33;;;;;;;8.65;3.53;;;1.70;99.90;;;;;;5046104;28;20048;-79
2022/01/10 02:20:00;;;;;;;9.75;3.58;;;1.70;99.90;;;;;;5047386;28;20054;-79
2022/01/10 02:22:26;;;;;;;10.27;3.25;;;1.70;99.90;;;;;;5073043;28;20497;-80
2022/01/10 02:24:52;;;;;;;9.18;3.63;;;1.70;99.90;;;;;;5044596;28;20063;-79
2022/01/10 02:27:24;;;;;;;7.57;2.92;;;1.60;99.90;;;;;;5052649;28;20139;-79
2022/01/10 02:29:51;;;;;;;7.75;3.35;;;2.90;99.90;;;;;;5044725;28;20045;-80
2022/01/10 02:32:17;;;;;;;8.50;3.20;;;1.50;99.90;;;;;;5068079;28;20748;-80
2022/01/10 02:34:43;;;;;;;10.02;3.20;;;2.60;99.90;;;;;;5068600;28;20052;-80
2022/01/10 02:37:09;;;;;;;7.05;3.05;;;1.40;99.90;;;;;;5051485;28;20052;-79
2022/01/10 02:39:36;;;;;;;9.25;3.03;;;2.10;99.90;;;;;;5051824;28;20592;-79
2022/01/10 02:42:02;;;;;;;7.57;2.95;;;2.60;99.90;;;;;;5051198;28;20040;-79
2022/01/10 02:44:29;;;;;;;11.40;3.25;;;1.30;99.90;;;;;;5040345;28;20045;-79
2022/01/10 02:46:56;;;;;;;10.55;3.53;;;0.20;99.90;;;;;;5035317;28;20044;-79
2022/01/10 02:49:27;;;;;;;7.90;3.30;;;2.30;99.90;;;;;;5051741;28;20043;-80
2022/01/10 02:51:55;;;;;;;6.97;3.40;;;1.20;99.90;;;;;;5049767;28;20058;-80
2022/01/10 02:54:25;;;;;;;7.50;4.15;;;1.70;99.90;;;;;;5051828;28;20116;-79
2022/01/10 02:56:55;;;;;;;11.05;3.70;;;2.50;99.90;;;;;;5067532;28;20049;-79
2022/01/10 02:59:22;;;;;;;9.57;3.20;;;1.60;99.90;;;;;;5068257;28;20041;-79
2022/01/10 03:01:49;;;;;;;9.40;4.18;;;1.40;99.90;;;;;;5050697;28;20075;-79
2022/01/10 03:04:15;;;;;;;10.73;4.57;;;2.20;99.90;;;;;;5060386;28;20148;-79
2022/01/10 03:06:42;;;;;;;10.07;4.50;;;2.50;99.90;;;;;;5046904;28;20406;-79
2022/01/10 03:09:11;;;;;;;7.50;4.32;;;2.50;99.90;;;;;;5034111;28;20507;-79
2022/01/10 03:11:39;;;;;;;8.02;4.22;;;2.50;99.90;;;;;;5050669;28;20060;-79
2022/01/10 03:14:06;;;;;;;11.45;4.75;;;2.30;99.90;;;;;;5032841;28;20044;-79
2022/01/10 03:16:32;;;;;;;8.77;4.97;;;1.20;99.90;;;;;;5051066;28;20090;-79
2022/01/10 03:18:58;;;;;;;15.77;4.80;;;1.50;99.90;;;;;;5050803;28;20614;-79
2022/01/10 03:21:24;;;;;;;9.70;4.50;;;0.90;99.90;;;;;;5051246;28;20139;-79
2022/01/10 03:23:51;;;;;;;13.60;4.53;;;0.90;99.90;;;;;;5056973;28;20052;-79
2022/01/10 03:26:18;;;;;;;11.45;5.00;;;2.30;99.90;;;;;;5048939;28;20040;-79
2022/01/10 03:28:44;;;;;;;12.63;4.50;;;1.80;99.90;;;;;;5058249;28;20076;-79
2022/01/10 03:31:09;;;;;;;11.57;4.90;;;0.80;99.90;;;;;;5032963;28;20135;-79
2022/01/10 03:33:35;;;;;;;11.38;4.70;;;0.80;99.90;;;;;;5052002;28;20405;-79
2022/01/10 03:36:01;;;;;;;13.48;5.80;;;1.90;99.90;;;;;;5057572;28;20052;-80
2022/01/10 03:38:27;;;;;;;14.52;5.32;;;2.20;99.90;;;;;;5075317;28;20401;-79
2022/01/10 03:40:53;;;;;;;12.00;5.03;;;1.80;99.90;;;;;;5060155;28;20036;-79
2022/01/10 03:43:20;;;;;;;13.02;5.35;;;0.90;99.90;;;;;;5065315;28;20040;-79
2022/01/10 03:45:46;;;;;;;12.90;5.15;;;0.90;99.90;;;;;;5058814;28;20048;-79
2022/01/10 03:48:12;;;;;;;12.95;5.10;;;2.10;99.90;;;;;;5073476;28;20044;-79
2022/01/10 03:50:37;;;;;;;15.25;5.30;;;1.30;99.90;;;;;;5057920;28;20036;-79
2022/01/10 03:53:03;;;;;;;12.73;4.28;;;0.80;99.90;;;;;;5043499;28;20049;-80
2022/01/10 03:55:29;;;;;;;15.40;5.50;;;1.30;99.90;;;;;;5075126;28;20053;-79
2022/01/10 03:57:55;;;;;;;20.67;5.72;;;1.60;99.90;;;;;;5059120;28;20398;-80
2022/01/10 04:00:21;;;;;;;10.77;4.75;;;0.80;99.90;;;;;;5042669;28;20044;-79
2022/01/10 04:02:55;;;;;;;14.05;4.78;;;0.80;99.90;;;;;;5045151;28;20523;-79
2022/01/10 04:05:21;;;;;;;11.48;4.65;;;0.70;99.90;;;;;;5043120;28;20079;-79
2022/01/10 04:07:46;;;;;;;9.18;4.03;;;0.70;99.90;;;;;;5074610;28;20509;-79
2022/01/10 04:10:12;;;;;;;12.10;5.22;;;1.80;99.90;;;;;;5048064;28;20051;-82
2022/01/10 04:12:38;;;;;;;11.45;4.60;;;1.00;99.90;;;;;;5057155;28;20045;-79
2022/01/10 04:15:04;;;;;;;11.88;4.95;;;1.80;99.90;;;;;;5075070;28;20379;-79
2022/01/10 04:17:30;;;;;;;14.45;4.45;;;0.60;99.90;;;;;;5058891;28;20055;-79
2022/01/10 04:19:56;;;;;;;12.10;4.53;;;0.60;99.90;;;;;;5059058;28;20036;-79
2022/01/10 04:22:22;;;;;;;14.50;5.18;;;1.80;99.90;;;;;;5044453;28;20060;-79
2022/01/10 04:24:47;;;;;;;12.23;4.47;;;0.50;99.90;;;;;;5042783;28;20059;-79
2022/01/10 04:27:13;;;;;;;9.82;5.15;;;0.80;99.90;;;;;;5031419;28;20522;-79
2022/01/10 04:29:39;;;;;;;11.07;4.75;;;1.10;99.90;;;;;;5065987;28;20041;-79
2022/01/10 04:32:05;;;;;;;10.73;4.35;;;0.50;99.90;;;;;;5064552;28;20076;-79
2022/01/10 04:34:31;;;;;;;15.32;4.93;;;0.50;99.90;;;;;;5049627;28;20087;-79
2022/01/10 04:36:57;;;;;;;12.73;4.68;;;0.50;99.90;;;;;;5049889;28;20111;-79
2022/01/10 04:39:23;;;;;;;11.52;4.75;;;0.40;99.90;;;;;;5031673;28;20040;-79
2022/01/10 04:41:48;;;;;;;14.75;5.78;;;1.90;99.90;;;;;;5067292;28;20478;-80
2022/01/10 04:44:14;;;;;;;18.40;5.82;;;2.00;99.90;;;;;;5049140;28;20433;-79
2022/01/10 04:46:40;;;;;;;14.40;5.50;;;0.40;99.90;;;;;;5032515;28;20044;-79
2022/01/10 04:49:12;;;;;;;10.88;5.20;;;0.40;99.90;;;;;;5049007;28;20368;-79
2022/01/10 04:51:38;;;;;;;10.13;5.30;;;0.30;99.90;;;;;;5065231;28;20048;-79
2022/01/10 04:54:04;;;;;;;12.55;6.10;;;0.40;99.90;;;;;;5048226;28;20049;-79
2022/01/10 04:56:31;;;;;;;12.32;6.07;;;0.40;99.90;;;;;;5065425;28;20048;-79
2022/01/10 04:58:58;;;;;;;14.80;6.30;;;1.60;99.90;;;;;;5048785;28;20087;-79
2022/01/10 05:01:23;;;;;;;11.80;5.43;;;1.60;99.90;;;;;;5043451;28;20048;-80
2022/01/10 05:03:49;;;;;;;14.55;5.80;;;1.70;99.90;;;;;;5048466;28;20056;-79
2022/01/10 05:06:15;;;;;;;14.23;5.53;;;0.60;99.90;;;;;;5041448;28;20067;-79
2022/01/10 05:08:41;;;;;;;15.30;5.75;;;1.40;99.90;;;;;;5031472;28;20481;-79
2022/01/10 05:11:07;;;;;;;14.75;6.50;;;0.30;99.90;;;;;;5032739;28;20055;-79
2022/01/10 05:13:34;;;;;;;14.32;6.13;;;1.40;99.90;;;;;;5047779;28;20044;-79
2022/01/10 05:15:59;;;;;;;10.60;6.15;;;0.30;99.90;;;;;;5048313;28;20155;-78
2022/01/10 05:18:25;;;;;;;14.65;7.10;;;1.40;99.90;;;;;;5064817;28;20127;-78
2022/01/10 05:20:51;;;;;;;13.60;5.78;;;1.20;99.90;;;;;;5031913;28;20049;-78
2022/01/10 05:23:17;;;;;;;14.57;6.10;;;1.70;99.90;;;;;;5046465;28;20052;-78
2022/01/10 05:25:43;;;;;;;12.68;6.20;;;0.60;99.90;;;;;;5030799;28;20748;-78
2022/01/10 05:28:14;;;;;;;16.48;6.60;;;0.20;99.90;;;;;;5048106;28;20076;-79
2022/01/10 05:30:40;;;;;;;12.18;6.25;;;0.70;99.90;;;;;;5064639;28;20063;-78
2022/01/10 05:33:07;;;;;;;17.27;7.63;;;1.10;99.90;;;;;;5064197;28;20479;-79
2022/01/10 05:35:39;;;;;;;15.10;7.15;;;1.30;99.90;;;;;;5062832;28;20044;-79
2022/01/10 05:38:05;;;;;;;16.05;7.18;;;0.10;99.90;;;;;;5064439;28;20048;-79
2022/01/10 05:40:31;;;;;;;15.45;8.65;;;0.10;99.90;;;;;;5064653;28;20044;-79
2022/01/10 05:42:57;;;;;;;14.55;7.72;;;0.00;99.90;;;;;;5031246;28;20398;-78
2022/01/10 05:45:23;;;;;;;18.23;8.48;;;0.90;99.90;;;;;;5046856;28;20044;-78
2022/01/10 05:47:49;;;;;;;22.25;8.32;;;0.00;99.90;;;;;;5029921;28;20563;-78
2022/01/10 05:50:31;;;;;;;19.02;7.60;;;1.30;99.90;;;;;;5031263;28;20036;-79
2022/01/10 05:52:57;;;;;;;14.75;7.57;;;0.50;99.90;;;;;;5064154;28;20166;-79
2022/01/10 05:55:23;;;;;;;16.75;8.05;;;1.10;99.90;;;;;;5064165;28;20044;-79
2022/01/10 05:57:48;;;;;;;13.93;8.32;;;0.00;99.90;;;;;;5038916;28;20459;-79
2022/01/10 06:00:14;;;;;;;15.95;8.23;;;0.40;99.90;;;;;;5009915;28;20504;-79
2022/01/10 06:02:40;;;;;;;15.95;8.07;;;1.20;99.90;;;;;;5026103;28;20470;-79
2022/01/10 06:05:09;;;;;;;18.73;8.73;;;1.30;99.90;;;;;;5023595;28;20520;-80
2022/01/10 06:07:36;;;;;;;14.85;8.43;;;-0.10;99.90;;;;;;5047691;28;20048;-79
2022/01/10 06:10:04;;;;;;;19.67;8.90;;;-0.10;99.90;;;;;;5064202;28;20047;-79
2022/01/10 06:12:30;;;;;;;15.35;7.70;;;-0.20;99.90;;;;;;5063470;28;20402;-79
2022/01/10 06:14:56;;;;;;;20.92;9.90;;;1.10;99.90;;;;;;5048660;28;20040;-79
2022/01/10 06:17:21;;;;;;;16.60;8.63;;;0.30;99.90;;;;;;5048005;28;20044;-79
2022/01/10 06:19:47;;;;;;;18.52;8.88;;;0.60;99.90;;;;;;5022846;28;20052;-79
2022/01/10 06:22:13;;;;;;;16.95;8.23;;;-0.20;99.90;;;;;;5063963;28;20056;-78
2022/01/10 06:24:39;;;;;;;16.25;8.20;;;0.80;99.90;;;;;;5051002;28;20200;-78
2022/01/10 06:27:04;;;;;;;24.63;10.57;;;-0.20;99.90;;;;;;5057185;28;20516;-78
2022/01/10 06:29:30;;;;;;;15.88;9.52;;;0.60;99.90;;;;;;5057425;28;20048;-79
2022/01/10 06:31:56;;;;;;;18.00;8.88;;;0.90;99.90;;;;;;5033929;28;20052;-79
2022/01/10 06:34:22;;;;;;;21.40;9.93;;;0.10;99.90;;;;;;5073975;28;20056;-79
2022/01/10 06:36:47;;;;;;;18.15;9.90;;;1.00;99.90;;;;;;5054954;28;20037;-78
2022/01/10 06:39:13;;;;;;;19.92;9.05;;;-0.20;99.90;;;;;;5048585;28;20109;-79
2022/01/10 06:41:39;;;;;;;18.67;9.85;;;1.40;99.90;;;;;;5056678;28;20489;-79
2022/01/10 06:44:05;;;;;;;20.58;10.00;;;1.20;99.90;;;;;;5058331;28;20047;-79
2022/01/10 06:46:30;;;;;;;51.03;12.50;;;1.20;99.90;;;;;;5056584;28;20036;-79
2022/01/10 06:48:56;;;;;;;73.25;12.52;;;1.30;99.90;;;;;;5073158;28;20052;-79
2022/01/10 06:51:22;;;;;;;88.35;12.95;;;-0.20;99.90;;;;;;5058069;28;20043;-79
2022/01/10 06:53:48;;;;;;;39.17;10.63;;;0.30;99.90;;;;;;5045980;28;20043;-79
2022/01/10 06:56:13;;;;;;;53.90;11.23;;;1.10;99.90;;;;;;5059354;28;20039;-79
2022/01/10 06:58:39;;;;;;;24.42;9.90;;;-0.20;99.90;;;;;;5047908;28;20553;-79
2022/01/10 07:01:05;;;;;;;38.97;11.23;;;1.30;99.90;;;;;;5059846;28;20071;-79
2022/01/10 07:03:31;;;;;;;20.77;10.30;;;1.20;99.90;;;;;;5076123;28;20047;-79
2022/01/10 07:05:57;;;;;;;20.42;10.32;;;-1.50;99.90;;;;;;5058585;28;20171;-79
2022/01/10 07:08:22;;;;;;;29.33;11.63;;;-0.20;99.90;;;;;;5062301;28;20043;-80
2022/01/10 07:10:48;;;;;;;62.40;13.60;;;0.40;99.90;;;;;;5060414;28;20083;-79
2022/01/10 07:13:14;;;;;;;17.98;9.85;;;-0.30;99.90;;;;;;5077003;28;20054;-79
2022/01/10 07:15:40;;;;;;;19.13;10.52;;;0.40;99.90;;;;;;5060395;28;20036;-80
2022/01/10 07:18:06;;;;;;;21.73;10.75;;;-0.20;99.90;;;;;;5038547;28;20048;-79
2022/01/10 07:20:33;;;;;;;90.15;12.90;;;1.10;99.90;;;;;;5043984;28;20542;-79
2022/01/10 07:22:59;;;;;;;57.58;12.65;;;0.40;99.90;;;;;;5050483;28;20068;-78
2022/01/10 07:25:25;;;;;;;152.88;18.45;;;0.20;99.90;;;;;;5031120;28;20044;-79
2022/01/10 07:27:52;;;;;;;178.43;18.15;;;1.00;99.90;;;;;;5050056;28;20113;-78
2022/01/10 07:30:17;;;;;;;187.43;20.10;;;1.20;99.90;;;;;;5033202;28;20040;-79
2022/01/10 07:32:44;;;;;;;153.95;18.40;;;1.30;99.90;;;;;;5048670;28;20367;-78
2022/01/10 07:35:10;;;;;;;75.55;14.07;;;0.00;99.90;;;;;;5032063;28;20052;-78
2022/01/10 07:37:36;;;;;;;97.82;17.15;;;-0.20;99.90;;;;;;5049948;28;20837;-79
2022/01/10 07:40:03;;;;;;;179.00;20.73;;;-0.20;99.90;;;;;;5044534;28;20110;-80
2022/01/10 07:42:29;;;;;;;70.28;15.05;;;-0.20;99.90;;;;;;5060460;28;20057;-80
2022/01/10 07:44:55;;;;;;;76.15;15.05;;;-0.10;99.90;;;;;;5049790;28;20047;-79
2022/01/10 07:47:21;;;;;;;116.32;18.45;;;1.20;99.90;;;;;;5051612;28;20066;-79
2022/01/10 07:49:47;;;;;;;170.35;20.58;;;1.00;99.90;;;;;;5051936;28;20048;-80
2022/01/10 07:52:13;;;;;;;62.47;15.90;;;-0.10;99.90;;;;;;5051331;28;20847;-79
2022/01/10 07:54:39;;;;;;;113.70;17.80;;;-0.10;99.90;;;;;;5066233;28;20075;-80
2022/01/10 07:57:04;;;;;;;67.43;16.00;;;-0.10;99.90;;;;;;5068970;28;20051;-79
2022/01/10 07:59:30;;;;;;;30.52;12.43;;;-0.10;99.90;;;;;;5033167;28;20190;-79
2022/01/10 08:01:57;;;;;;;147.38;20.67;;;-0.10;99.90;;;;;;5030716;28;20057;-79
2022/01/10 08:04:22;;;;;;;80.68;16.38;;;0.50;99.90;;;;;;5032683;28;20048;-79
2022/01/10 08:06:48;;;;;;;98.97;17.92;;;0.20;99.90;;;;;;5028837;28;20055;-78
2022/01/10 08:09:14;;;;;;;116.97;18.65;;;-0.10;99.90;;;;;;5065533;28;20041;-79
2022/01/10 08:11:40;;;;;;;112.03;18.60;;;0.80;99.90;;;;;;5065820;28;20036;-79
2022/01/10 08:14:05;;;;;;;117.20;20.95;;;0.20;99.90;;;;;;5032285;28;20460;-79
2022/01/10 08:16:31;;;;;;;128.52;20.02;;;1.10;99.90;;;;;;5046183;28;20521;-80
2022/01/10 08:18:57;;;;;;;163.98;20.75;;;-0.10;99.90;;;;;;5032951;28;20608;-85
2022/01/10 08:21:23;;;;;;;103.05;16.70;;;-0.10;99.90;;;;;;5049536;28;20040;-80
2022/01/10 08:23:49;;;;;;;150.70;18.73;;;-0.20;99.90;;;;;;5021127;28;20130;-79
2022/01/10 08:26:16;;;;;;;170.88;18.92;;;-0.10;99.90;;;;;;5074130;28;20048;-81
2022/01/10 08:28:42;;;;;;;171.82;20.40;;;0.80;99.90;;;;;;5057647;28;20053;-80
2022/01/10 08:31:11;;;;;;;56.72;14.13;;;0.70;99.90;;;;;;5057313;28;20044;-79
2022/01/10 08:33:37;;;;;;;142.43;20.58;;;-0.30;99.90;;;;;;5073378;28;20389;-83
2022/01/10 08:36:03;;;;;;;45.38;16.25;;;-0.40;99.90;;;;;;5068714;28;20051;-83
2022/01/10 08:38:29;;;;;;;52.25;15.45;;;-0.30;99.90;;;;;;5041127;28;20194;-82
2022/01/10 08:40:55;;;;;;;122.93;20.63;;;-0.30;99.90;;;;;;5056487;28;20075;-83
2022/01/10 08:43:21;;;;;;;89.53;18.35;;;0.70;99.90;;;;;;5055730;28;20159;-82
2022/01/10 08:45:47;;;;;;;66.30;18.05;;;-0.10;99.90;;;;;;5040980;28;20076;-83
2022/01/10 08:48:13;;;;;;;74.18;20.83;;;1.20;99.90;;;;;;5040644;28;20041;-83
2022/01/10 08:50:38;;;;;;;76.25;24.15;;;0.00;99.90;;;;;;5057721;28;20124;-83
2022/01/10 08:53:08;;;;;;;65.43;22.15;;;0.20;99.90;;;;;;5054292;28;20040;-82
2022/01/10 08:55:34;;;;;;;46.13;20.63;;;0.20;99.90;;;;;;5076098;28;20063;-82
2022/01/10 08:58:01;;;;;;;41.78;20.00;;;0.40;99.90;;;;;;5041844;28;20041;-83
2022/01/10 09:00:27;;;;;;;38.15;19.83;;;0.40;99.90;;;;;;5072189;28;20054;-83
2022/01/10 09:02:53;;;;;;;99.18;24.35;;;1.10;99.90;;;;;;5056515;28;20083;-82
2022/01/10 09:05:19;;;;;;;59.83;21.15;;;0.60;99.90;;;;;;5057132;28;20075;-82
2022/01/10 09:07:46;;;;;;;86.80;23.95;;;1.30;99.90;;;;;;5040950;28;20044;-83
2022/01/10 09:10:12;;;;;;;44.95;20.27;;;0.80;99.90;;;;;;5056769;28;20051;-82
2022/01/10 09:12:38;;;;;;;126.57;25.80;;;2.20;99.90;;;;;;5070949;28;20048;-79
2022/01/10 09:15:06;;;;;;;55.85;19.80;;;1.00;99.90;;;;;;5061275;28;20055;-78
2022/01/10 09:17:32;;;;;;;83.80;21.98;;;1.10;99.90;;;;;;5076919;28;20048;-78
2022/01/10 09:19:58;;;;;;;72.82;20.83;;;1.30;99.90;;;;;;5077459;28;20243;-78
2022/01/10 09:22:24;;;;;;;35.92;18.85;;;2.40;99.90;;;;;;5053908;28;20121;-78
2022/01/10 09:24:49;;;;;;;45.17;19.15;;;1.80;99.90;;;;;;5049667;28;20918;-77
2022/01/10 09:27:15;;;;;;;50.58;20.77;;;2.50;99.90;;;;;;5042579;28;20493;-78
2022/01/10 09:29:42;;;;;;;32.10;17.98;;;2.00;99.90;;;;;;5032262;28;20063;-78
2022/01/10 09:32:09;;;;;;;42.30;19.40;;;1.30;99.90;;;;;;5041205;28;20608;-78
2022/01/10 09:34:35;;;;;;;50.33;21.38;;;1.30;99.90;;;;;;5046897;28;20592;-78
2022/01/10 09:37:01;;;;;;;53.53;23.17;;;2.60;99.90;;;;;;5048510;28;20056;-78
2022/01/10 09:39:27;;;;;;;54.88;23.27;;;1.40;99.90;;;;;;5048829;28;20044;-78
2022/01/10 09:41:53;;;;;;;50.38;17.55;;;1.50;99.90;;;;;;5030435;28;20052;-78
2022/01/10 09:44:19;;;;;;;30.55;15.13;;;2.80;99.90;;;;;;5055648;28;20105;-78
2022/01/10 09:46:48;;;;;;;27.60;15.13;;;1.50;99.90;;;;;;5048326;28;20044;-78
2022/01/10 09:49:16;;;;;;;30.15;15.38;;;1.50;99.90;;;;;;5041326;28;20044;-78
2022/01/10 09:51:42;;;;;;;37.55;16.02;;;1.50;99.90;;;;;;5041112;28;20131;-78
2022/01/10 09:54:08;;;;;;;23.10;15.85;;;1.60;99.90;;;;;;5047318;28;20462;-78
2022/01/10 09:56:34;;;;;;;23.55;17.08;;;2.10;99.90;;;;;;5046509;28;20397;-79
2022/01/10 09:59:00;;;;;;;23.95;16.95;;;1.80;99.90;;;;;;5066001;28;20131;-78
2022/01/10 10:01:30;;;;;;;32.05;17.40;;;1.80;99.90;;;;;;5030660;28;20151;-78
2022/01/10 10:03:59;;;;;;;51.50;18.58;;;2.00;99.90;;;;;;5049005;28;20044;-78
2022/01/10 10:06:26;;;;;;;29.33;16.63;;;2.00;99.90;;;;;;5033588;28;20409;-78
2022/01/10 10:08:52;;;;;;;37.58;17.63;;;2.10;99.90;;;;;;5064367;28;20044;-79
2022/01/10 10:11:18;;;;;;;40.20;18.38;;;2.20;99.90;;;;;;5033257;28;20071;-79
2022/01/10 10:13:51;;;;;;;48.80;18.73;;;3.40;99.90;;;;;;5047851;28;20052;-79
2022/01/10 10:16:18;;;;;;;56.15;17.65;;;3.60;99.90;;;;;;5027047;28;20078;-79
2022/01/10 10:18:46;;;;;;;85.00;20.40;;;3.10;99.90;;;;;;5032577;28;20056;-79
2022/01/10 10:21:16;;;;;;;23.67;16.00;;;2.50;99.90;;;;;;5034582;28;20102;-80
2022/01/10 10:23:46;;;;;;;27.33;17.95;;;2.60;99.90;;;;;;5057948;28;20110;-79
2022/01/10 10:26:16;;;;;;;78.25;19.10;;;2.80;99.90;;;;;;5037225;28;20140;-78
2022/01/10 10:28:44;;;;;;;24.75;15.95;;;2.90;99.90;;;;;;5067745;28;20138;-79
2022/01/10 10:31:10;;;;;;;29.48;16.25;;;3.10;99.90;;;;;;5045890;28;20105;-79
2022/01/10 10:33:47;;;;;;;28.48;14.43;;;3.40;99.90;;;;;;5052515;28;20044;-80
2022/01/10 10:36:13;;;;;;;40.72;16.23;;;3.30;99.90;;;;;;5047587;28;20088;-81
2022/01/10 10:38:38;;;;;;;49.42;16.10;;;3.60;99.90;;;;;;5053577;28;20597;-80
2022/01/10 10:41:05;;;;;;;20.55;14.23;;;4.00;99.90;;;;;;5053318;28;20049;-80
2022/01/10 10:43:32;;;;;;;17.35;15.45;;;4.50;99.90;;;;;;5043808;28;20064;-79
2022/01/10 10:46:12;;;;;;;22.77;14.98;;;5.00;99.90;;;;;;5069206;28;20136;-80
2022/01/10 10:48:39;;;;;;;15.13;13.10;;;5.40;99.90;;;;;;5052194;28;20095;-80
2022/01/10 10:51:05;;;;;;;14.40;12.85;;;5.70;99.90;;;;;;5035339;28;20044;-78
2022/01/10 10:53:31;;;;;;;15.23;11.50;;;5.90;99.90;;;;;;5035018;28;20093;-79
2022/01/10 10:55:59;;;;;;;15.57;12.30;;;5.90;99.90;;;;;;5050217;28;20482;-79
2022/01/10 10:58:26;;;;;;;13.40;11.98;;;6.50;99.90;;;;;;5045007;28;20052;-79
2022/01/10 11:00:55;;;;;;;11.68;10.48;;;6.90;99.90;;;;;;5063521;28;20510;-79
2022/01/10 11:03:24;;;;;;;11.40;10.07;;;6.70;99.90;;;;;;5065827;28;20409;-79
2022/01/10 11:05:54;;;;;;;12.20;10.07;;;6.80;99.90;;;;;;5031752;28;20677;-80
2022/01/10 11:08:22;;;;;;;11.38;10.07;;;6.10;99.90;;;;;;5049177;28;20173;-82
2022/01/10 11:10:48;;;;;;;12.38;10.52;;;6.70;99.90;;;;;;5048946;28;20045;-81
2022/01/10 11:13:14;;;;;;;14.85;11.07;;;6.80;99.90;;;;;;5044420;28;20052;-82
2022/01/10 11:15:42;;;;;;;11.90;10.70;;;5.40;99.90;;;;;;5032506;28;20044;-82
2022/01/10 11:18:09;;;;;;;14.27;11.30;;;5.30;99.90;;;;;;5050077;28;20096;-81
2022/01/10 11:20:46;;;;;;;15.15;11.60;;;5.20;99.90;;;;;;5050851;28;20067;-82
2022/01/10 11:23:12;;;;;;;12.98;11.30;;;5.00;99.90;;;;;;5060396;28;20044;-81
2022/01/10 11:25:40;;;;;;;13.48;11.20;;;5.10;99.90;;;;;;5033787;28;20048;-81
2022/01/10 11:28:20;;;;;;;13.07;11.13;;;4.90;99.90;;;;;;5052854;28;20123;-81
2022/01/10 11:30:46;;;;;;;13.13;10.63;;;4.80;99.90;;;;;;5067997;28;20052;-82
2022/01/10 11:33:15;;;;;;;16.02;11.32;;;4.80;99.90;;;;;;5067631;28;20079;-81
2022/01/10 11:35:53;;;;;;;13.02;11.48;;;5.30;99.90;;;;;;5045728;28;20121;-81
2022/01/10 11:38:25;;;;;;;16.63;12.00;;;4.60;99.90;;;;;;5066036;28;20048;-78
2022/01/10 11:40:58;;;;;;;18.50;14.40;;;4.60;99.90;;;;;;5049968;28;20048;-78
2022/01/10 11:43:33;;;;;;;22.40;14.40;;;4.60;99.90;;;;;;5050834;28;20044;-78
2022/01/10 11:46:16;;;;;;;20.10;13.93;;;4.60;99.90;;;;;;5066381;28;20080;-79
2022/01/10 11:48:50;;;;;;;24.42;14.38;;;4.60;99.90;;;;;;5049611;28;20047;-79
2022/01/10 11:51:21;;;;;;;23.23;15.13;;;4.60;99.90;;;;;;5063438;28;20052;-79
2022/01/10 11:53:59;;;;;;;24.05;15.55;;;5.60;99.90;;;;;;5064534;28;20405;-79
2022/01/10 11:56:29;;;;;;;19.83;14.48;;;4.70;99.90;;;;;;5064568;28;20892;-78
2022/01/10 11:59:19;;;;;;;26.05;17.33;;;4.70;99.90;;;;;;5064263;28;20036;-77
2022/01/10 12:01:48;;;;;;;26.33;16.92;;;4.70;99.90;;;;;;5064770;28;20090;-77
2022/01/10 12:04:15;;;;;;;23.95;16.42;;;4.70;99.90;;;;;;5048703;28;20058;-78
2022/01/10 12:06:41;;;;;;;23.17;16.88;;;4.80;99.90;;;;;;5048712;28;20055;-80
2022/01/10 12:09:07;;;;;;;26.52;17.05;;;4.90;99.90;;;;;;5032226;28;20371;-78
2022/01/10 12:11:34;;;;;;;25.10;17.75;;;5.00;99.90;;;;;;5033420;28;20056;-78
2022/01/10 12:14:00;;;;;;;25.02;16.65;;;5.10;99.90;;;;;;5049202;28;20211;-78
2022/01/10 12:16:27;;;;;;;24.85;17.50;;;5.20;99.90;;;;;;5049545;28;20120;-79
2022/01/10 12:18:53;;;;;;;23.88;16.13;;;5.30;99.90;;;;;;5050137;28;20807;-78
2022/01/10 12:21:20;;;;;;;26.38;16.77;;;5.70;99.90;;;;;;5049955;28;20093;-78
2022/01/10 12:23:47;;;;;;;27.33;16.70;;;5.80;99.90;;;;;;5051592;28;20405;-79
2022/01/10 12:26:14;;;;;;;22.85;17.17;;;5.60;99.90;;;;;;5075484;28;20044;-78
2022/01/10 12:28:41;;;;;;;24.05;16.48;;;6.80;99.90;;;;;;5081106;28;20550;-78
2022/01/10 12:31:07;;;;;;;21.38;16.45;;;5.70;99.90;;;;;;5076306;28;20117;-78
2022/01/10 12:33:33;;;;;;;25.58;16.05;;;5.80;99.90;;;;;;5057306;28;20584;-79
2022/01/10 12:36:02;;;;;;;23.63;16.67;;;5.80;99.90;;;;;;5058187;28;20047;-79
2022/01/10 12:38:29;;;;;;;22.77;15.38;;;5.90;99.90;;;;;;5072466;28;20062;-78
2022/01/10 12:40:55;;;;;;;22.27;15.13;;;5.90;99.90;;;;;;5074779;28;20084;-79
2022/01/10 12:43:21;;;;;;;22.98;15.93;;;6.00;99.90;;;;;;5040408;28;20051;-79
2022/01/10 12:45:49;;;;;;;26.85;15.63;;;6.00;99.90;;;;;;5057377;28;20044;-79
2022/01/10 12:48:15;;;;;;;23.13;15.13;;;6.10;99.90;;;;;;5039224;28;20041;-78
2022/01/10 12:50:45;;;;;;;21.67;15.02;;;6.10;99.90;;;;;;5057619;28;20391;-80